Time;durP1;ratioP1;P1;durP2;ratioP2;P2;SDS_P1;SDS_P2;PMS_P1;PMS_P2;Temp;Humidity;BMP_temperature;BMP_pressure;BME280_temperature;BME280_humidity;BME280_pressure;Samples;Min_cycle;Max_cycle;Signal;HPM_P1;HPM_P2
2021/07/02 00:01:37;;;;;;;2.75;2.00;;;;;;;16.20;89.22;97918.41;5016978;28;20084;-79
2021/07/02 00:04:04;;;;;;;4.97;2.13;;;;;;;16.00;89.60;97898.72;5016786;28;20022;-79
2021/07/02 00:06:29;;;;;;;3.55;1.60;;;;;;;16.01;88.93;97899.50;5016553;28;20034;-78
2021/07/02 00:08:55;;;;;;;3.42;1.52;;;;;;;16.03;88.98;97911.06;5034540;28;20025;-82
2021/07/02 00:11:20;;;;;;;4.05;1.35;;;;;;;16.03;88.62;97897.25;5034596;28;20485;-80
2021/07/02 00:13:46;;;;;;;4.05;1.42;;;;;;;15.92;88.67;97907.03;5034393;28;20030;-80
2021/07/02 00:16:11;;;;;;;1.95;1.40;;;;;;;15.80;90.24;97921.53;5032871;28;20041;-80
2021/07/02 00:18:36;;;;;;;4.75;1.58;;;;;;;15.75;90.55;97920.91;5032881;28;20029;-81
2021/07/02 00:21:02;;;;;;;2.13;1.00;;;;;;;15.48;91.95;97909.13;5016603;28;20025;-79
2021/07/02 00:23:27;;;;;;;2.15;1.60;;;;;;;15.67;91.11;97911.50;5016287;28;20036;-80
2021/07/02 00:25:53;;;;;;;2.42;1.50;;;;;;;15.71;90.92;97919.94;5016039;28;20037;-79
2021/07/02 00:28:18;;;;;;;1.73;1.63;;;;;;;15.43;92.46;97905.72;5034451;28;20386;-81
2021/07/02 00:30:44;;;;;;;1.10;1.00;;;;;;;15.31;93.22;97919.34;5033822;28;20474;-79
2021/07/02 00:33:09;;;;;;;1.75;1.35;;;;;;;15.45;93.22;97923.53;5033674;28;20482;-79
2021/07/02 00:35:35;;;;;;;1.88;1.20;;;;;;;15.64;91.97;97922.38;5033916;28;20143;-79
2021/07/02 00:38:00;;;;;;;1.77;1.45;;;;;;;15.70;91.38;97916.34;5037505;28;20044;-80
2021/07/02 00:40:26;;;;;;;1.75;1.33;;;;;;;15.80;90.51;97910.50;5016209;28;20030;-79
2021/07/02 00:42:51;;;;;;;1.63;1.48;;;;;;;15.73;91.22;97915.69;5015365;28;20116;-81
2021/07/02 00:45:17;;;;;;;6.43;1.88;;;;;;;15.55;91.91;97908.63;5030615;28;20076;-80
2021/07/02 00:47:42;;;;;;;4.10;1.60;;;;;;;15.42;92.78;97909.59;5033077;28;20057;-82
2021/07/02 00:50:09;;;;;;;1.85;1.10;;;;;;;15.46;92.67;97900.34;5033730;28;20587;-81
2021/07/02 00:52:34;;;;;;;5.60;1.55;;;;;;;15.49;92.58;97905.25;5033759;28;20493;-80
2021/07/02 00:55:00;;;;;;;4.85;1.33;;;;;;;15.55;92.49;97897.59;5032276;28;20025;-81
2021/07/02 00:57:27;;;;;;;1.60;1.48;;;;;;;15.59;92.35;97898.56;5032551;28;20034;-82
2021/07/02 00:59:53;;;;;;;1.90;1.48;;;;;;;15.62;92.22;97897.09;5034264;28;20026;-82
2021/07/02 01:02:19;;;;;;;2.45;1.58;;;;;;;15.49;92.65;97887.88;5032131;28;20026;-81
2021/07/02 01:04:44;;;;;;;6.30;1.48;;;;;;;15.52;92.53;97893.56;5032334;28;20397;-80
2021/07/02 01:07:13;;;;;;;3.92;1.75;;;;;;;15.49;92.77;97891.47;5015628;28;20029;-79
2021/07/02 01:09:44;;;;;;;3.33;1.55;;;;;;;15.68;91.28;97874.53;5033325;28;20029;-82
2021/07/02 01:12:11;;;;;;;1.73;1.35;;;;;;;15.36;92.55;97883.34;5031866;28;20037;-82
2021/07/02 01:14:39;;;;;;;4.63;1.67;;;;;;;15.12;94.05;97872.06;5033061;28;20030;-81
2021/07/02 01:17:05;;;;;;;2.55;1.27;;;;;;;15.08;94.24;97884.84;5031891;28;20041;-80
2021/07/02 01:19:30;;;;;;;2.67;1.30;;;;;;;15.24;92.82;97872.19;5033157;28;20029;-79
2021/07/02 01:21:56;;;;;;;3.42;1.50;;;;;;;15.41;91.02;97880.44;5032991;28;20030;-81
2021/07/02 01:24:23;;;;;;;4.18;1.40;;;;;;;15.26;91.45;97872.66;5015196;28;20037;-80
2021/07/02 01:26:50;;;;;;;2.22;1.48;;;;;;;15.39;90.61;97871.66;5031621;28;20030;-81
2021/07/02 01:29:15;;;;;;;2.47;1.60;;;;;;;15.56;90.27;97879.91;5032264;28;20124;-80
2021/07/02 01:31:41;;;;;;;1.38;1.20;;;;;;;15.56;89.65;97860.63;5031525;28;20115;-81
2021/07/02 01:34:07;;;;;;;1.63;1.30;;;;;;;15.18;91.54;97854.22;5032838;28;20080;-80
2021/07/02 01:36:32;;;;;;;1.95;1.40;;;;;;;15.11;92.34;97871.25;5031426;28;20014;-81
2021/07/02 01:38:57;;;;;;;1.70;1.20;;;;;;;15.27;91.57;97864.06;5032794;28;20120;-79
2021/07/02 01:41:23;;;;;;;4.80;2.15;;;;;;;15.56;90.02;97877.16;5015086;28;20040;-82
2021/07/02 01:43:48;;;;;;;2.85;1.50;;;;;;;15.07;91.45;97858.47;5031208;28;20053;-83
2021/07/02 01:46:14;;;;;;;1.48;1.38;;;;;;;15.22;91.68;97874.47;5031220;28;20053;-79
2021/07/02 01:48:40;;;;;;;3.58;1.58;;;;;;;14.96;92.71;97869.00;5032450;28;20030;-78
2021/07/02 01:51:06;;;;;;;4.00;2.25;;;;;;;14.98;92.67;97872.22;5032697;28;20029;-80
2021/07/02 01:53:31;;;;;;;5.97;2.30;;;;;;;15.07;92.15;97867.50;5032432;28;20060;-82
2021/07/02 01:55:57;;;;;;;4.22;2.08;;;;;;;15.10;91.42;97863.31;5014592;28;20026;-81
2021/07/02 01:58:23;;;;;;;3.58;2.25;;;;;;;15.06;92.09;97873.34;5015344;28;20026;-80
2021/07/02 02:00:49;;;;;;;3.22;1.80;;;;;;;14.93;92.98;97873.22;5032458;28;20033;-80
2021/07/02 02:03:15;;;;;;;5.82;2.03;;;;;;;14.79;95.23;97869.81;5032185;28;20037;-80
2021/07/02 02:05:40;;;;;;;5.47;2.03;;;;;;;14.73;96.75;97864.78;5031211;28;20087;-82
2021/07/02 02:08:06;;;;;;;6.60;2.40;;;;;;;14.91;96.46;97875.47;5032203;28;20024;-80
2021/07/02 02:10:31;;;;;;;7.05;2.25;;;;;;;14.73;97.91;97859.28;5014069;28;20409;-83
2021/07/02 02:12:57;;;;;;;5.53;2.40;;;;;;;14.78;98.45;97865.44;5031276;28;20112;-79
2021/07/02 02:15:22;;;;;;;6.18;2.22;;;;;;;15.03;96.96;97877.59;5029934;28;20034;-81
2021/07/02 02:17:48;;;;;;;4.03;2.25;;;;;;;14.92;97.11;97876.28;5032108;28;20029;-78
2021/07/02 02:20:17;;;;;;;6.70;2.53;;;;;;;14.99;96.67;97874.66;5032004;28;20014;-80
2021/07/02 02:22:42;;;;;;;3.78;2.70;;;;;;;15.00;96.42;97873.50;5032187;28;20068;-81
2021/07/02 02:25:09;;;;;;;2.30;2.10;;;;;;;14.94;96.40;97866.53;5030919;28;20057;-78
2021/07/02 02:27:35;;;;;;;5.05;1.95;;;;;;;14.76;97.28;97864.94;5030492;28;20024;-80
2021/07/02 02:30:01;;;;;;;2.70;1.98;;;;;;;14.84;95.32;97871.59;5014291;28;20429;-80
2021/07/02 02:32:26;;;;;;;2.10;1.20;;;;;;;14.81;94.94;97875.00;5031928;28;20033;-81
2021/07/02 02:34:52;;;;;;;4.88;1.52;;;;;;;14.57;95.81;97867.22;5013759;28;20025;-78
2021/07/02 02:37:18;;;;;;;2.97;1.92;;;;;;;14.48;96.50;97861.72;5036846;28;20087;-80
2021/07/02 02:39:43;;;;;;;1.98;1.35;;;;;;;14.65;96.03;97876.63;5050343;28;20017;-79
2021/07/02 02:42:08;;;;;;;5.82;1.67;;;;;;;14.69;94.87;97869.34;5049840;28;20397;-80
2021/07/02 02:44:34;;;;;;;2.10;1.88;;;;;;;14.58;95.19;97877.09;5050585;28;20032;-80
2021/07/02 02:47:00;;;;;;;2.20;1.55;;;;;;;14.50;96.09;97871.59;5051664;28;20045;-81
2021/07/02 02:49:25;;;;;;;2.05;1.70;;;;;;;14.53;96.49;97893.78;5051451;28;20025;-82
2021/07/02 02:51:51;;;;;;;5.93;3.15;;;;;;;14.44;97.35;97879.19;5033663;28;20080;-80
2021/07/02 02:54:17;;;;;;;4.95;2.10;;;;;;;14.55;96.92;97875.00;5033503;28;20045;-82
2021/07/02 02:59:26;;;;;;;3.15;2.53;;;;;;;14.71;96.52;97878.88;5040276;28;20072;-78
2021/07/02 03:01:51;;;;;;;5.32;2.72;;;;;;;14.67;96.21;97872.41;5048125;28;20115;-78
2021/07/02 03:04:17;;;;;;;6.30;2.40;;;;;;;14.60;96.45;97882.28;5046846;28;20021;-78
2021/07/02 03:06:42;;;;;;;4.20;2.00;;;;;;;14.31;97.70;97878.19;5030646;28;20040;-77
2021/07/02 03:09:08;;;;;;;8.32;2.25;;;;;;;14.21;98.16;97874.91;5029938;28;20167;-77
2021/07/02 03:11:33;;;;;;;4.45;2.10;;;;;;;14.27;98.28;97879.13;5048563;28;20040;-77
2021/07/02 03:13:58;;;;;;;4.43;2.30;;;;;;;14.34;97.74;97874.00;5031102;28;20028;-76
2021/07/02 03:16:24;;;;;;;2.75;2.10;;;;;;;14.39;97.53;97882.09;5048522;28;20078;-80
2021/07/02 03:18:49;;;;;;;3.95;3.30;;;;;;;14.49;96.86;97879.03;5048782;28;20025;-78
2021/07/02 03:21:14;;;;;;;5.00;2.30;;;;;;;14.65;95.73;97877.44;5039895;28;20470;-79
2021/07/02 03:23:41;;;;;;;3.65;2.65;;;;;;;14.77;95.32;97883.09;5038653;28;20044;-79
2021/07/02 03:26:06;;;;;;;2.70;2.13;;;;;;;14.70;95.34;97882.75;5038600;28;20401;-78
2021/07/02 03:28:35;;;;;;;2.55;2.35;;;;;;;14.75;95.31;97888.13;5022493;28;20032;-78
2021/07/02 03:31:00;;;;;;;4.90;2.50;;;;;;;14.65;95.56;97880.19;5048945;28;20040;-78
2021/07/02 03:33:26;;;;;;;3.63;2.00;;;;;;;14.61;95.32;97878.38;5032105;28;20029;-77
2021/07/02 03:35:51;;;;;;;4.28;2.08;;;;;;;14.71;94.62;97872.56;5032356;28;20032;-76
2021/07/02 03:38:16;;;;;;;2.40;2.08;;;;;;;14.87;93.88;97890.22;5049995;28;20473;-79
2021/07/02 03:40:42;;;;;;;3.25;2.17;;;;;;;14.99;93.20;97896.69;5050217;28;20181;-76
2021/07/02 03:43:07;;;;;;;3.03;1.90;;;;;;;14.75;93.30;97890.06;5032481;28;20036;-76
2021/07/02 03:45:33;;;;;;;2.53;1.65;;;;;;;14.72;93.82;97891.50;5050990;28;20021;-76
2021/07/02 03:47:58;;;;;;;3.45;2.53;;;;;;;14.89;93.22;97896.22;5050322;28;20067;-76
2021/07/02 03:50:23;;;;;;;2.35;1.85;;;;;;;15.15;91.94;97893.44;5050225;28;20033;-76
2021/07/02 03:52:49;;;;;;;4.00;1.92;;;;;;;15.12;91.70;97883.06;5049966;28;20021;-77
2021/07/02 03:55:14;;;;;;;2.05;1.85;;;;;;;15.17;91.42;97880.13;5050009;28;20036;-76
2021/07/02 03:57:40;;;;;;;4.75;2.20;;;;;;;15.13;91.83;97882.72;5050456;28;20029;-76
2021/07/02 04:00:06;;;;;;;3.17;1.92;;;;;;;15.46;90.19;97883.00;5050459;28;20112;-77
2021/07/02 04:02:32;;;;;;;3.60;2.67;;;;;;;15.37;89.99;97868.44;5049948;28;20560;-79
2021/07/02 04:04:58;;;;;;;3.70;2.05;;;;;;;15.28;91.32;97875.91;5049960;28;20116;-77
2021/07/02 04:07:25;;;;;;;2.70;2.35;;;;;;;15.22;91.58;97869.78;5050077;28;20373;-76
2021/07/02 04:09:50;;;;;;;4.95;1.77;;;;;;;15.46;89.80;97875.53;5031601;28;20098;-76
2021/07/02 04:12:16;;;;;;;5.38;2.47;;;;;;;15.70;88.46;97877.75;5049725;28;20064;-76
2021/07/02 04:14:44;;;;;;;6.30;2.45;;;;;;;15.60;88.74;97886.38;5049246;28;20037;-77
2021/07/02 04:17:09;;;;;;;3.55;1.50;;;;;;;15.33;90.23;97872.97;5049380;28;20095;-76
2021/07/02 04:19:36;;;;;;;3.72;3.00;;;;;;;15.42;90.05;97877.31;5048694;28;20106;-77
2021/07/02 04:22:02;;;;;;;13.77;2.88;;;;;;;15.82;87.87;97894.41;5049059;28;20025;-77
2021/07/02 04:24:29;;;;;;;6.75;2.42;;;;;;;15.80;88.33;97904.16;5049472;28;20029;-76
2021/07/02 04:26:55;;;;;;;6.22;2.33;;;;;;;15.62;88.98;97897.91;5050037;28;20843;-76
2021/07/02 04:29:20;;;;;;;5.22;3.25;;;;;;;15.60;89.13;97889.13;5032155;28;20032;-75
2021/07/02 04:31:46;;;;;;;8.82;2.65;;;;;;;15.62;88.94;97908.94;5039014;28;20444;-75
2021/07/02 04:34:11;;;;;;;4.45;2.78;;;;;;;15.66;88.81;97909.09;5047015;28;20120;-77
2021/07/02 04:36:36;;;;;;;8.18;2.80;;;;;;;15.65;88.40;97897.25;5045752;28;20110;-77
2021/07/02 04:39:03;;;;;;;4.80;3.17;;;;;;;15.71;88.12;97908.91;5032079;28;20147;-76
2021/07/02 04:41:29;;;;;;;5.63;2.30;;;;;;;15.80;88.22;97909.69;5033460;28;20026;-77
2021/07/02 04:43:54;;;;;;;6.43;2.88;;;;;;;15.80;88.01;97907.72;5033342;28;20033;-75
2021/07/02 04:46:20;;;;;;;8.95;2.60;;;;;;;15.96;88.02;97906.03;5033509;28;20128;-76
2021/07/02 04:48:45;;;;;;;3.65;2.30;;;;;;;15.87;88.65;97910.78;5036831;28;20469;-75
2021/07/02 04:51:11;;;;;;;3.30;2.70;;;;;;;15.66;89.63;97898.06;5053528;28;20029;-76
2021/07/02 04:53:36;;;;;;;5.32;2.90;;;;;;;15.66;90.13;97920.94;5052374;28;20420;-76
2021/07/02 04:56:02;;;;;;;6.75;2.35;;;;;;;15.61;90.43;97912.81;5052393;28;20055;-75
2021/07/02 04:58:28;;;;;;;3.33;2.45;;;;;;;15.70;89.61;97921.88;5053136;28;20075;-75
2021/07/02 05:00:53;;;;;;;3.97;2.25;;;;;;;15.75;89.08;97909.88;5051940;28;20017;-75
2021/07/02 05:03:19;;;;;;;4.72;3.28;;;;;;;15.67;88.92;97897.72;5034906;28;20028;-75
2021/07/02 05:05:44;;;;;;;4.65;2.60;;;;;;;15.82;88.42;97905.44;5053039;28;20071;-76
2021/07/02 05:08:11;;;;;;;3.17;2.47;;;;;;;15.92;87.85;97912.53;5052794;28;20543;-77
2021/07/02 05:11:30;;;;;;;6.22;2.70;;;;;;;16.01;87.40;97927.94;5031103;28;20033;-76
2021/07/02 05:13:55;;;;;;;5.45;2.42;;;;;;;16.24;86.46;97916.63;5033002;28;20966;-76
2021/07/02 05:16:21;;;;;;;5.30;2.70;;;;;;;16.07;86.42;97910.03;5036070;28;20131;-81
2021/07/02 05:18:46;;;;;;;3.50;2.03;;;;;;;16.34;85.29;97913.47;5059574;28;20064;-77
2021/07/02 05:21:12;;;;;;;5.95;2.70;;;;;;;15.97;86.39;97906.84;5034735;28;20036;-79
2021/07/02 05:23:37;;;;;;;4.72;2.80;;;;;;;15.94;87.21;97910.28;5052316;28;20386;-77
2021/07/02 05:26:02;;;;;;;10.35;3.60;;;;;;;16.10;86.52;97900.28;5052523;28;20028;-79
2021/07/02 05:28:28;;;;;;;8.60;4.00;;;;;;;16.11;86.69;97912.94;5052714;28;20534;-79
2021/07/02 05:30:54;;;;;;;9.80;3.42;;;;;;;16.30;85.66;97907.81;5052237;28;20037;-79
2021/07/02 05:33:19;;;;;;;6.75;3.42;;;;;;;16.67;83.98;97917.19;5034768;28;20056;-79
2021/07/02 05:35:45;;;;;;;6.05;3.17;;;;;;;16.76;83.73;97926.22;5034463;28;20029;-76
2021/07/02 05:38:10;;;;;;;7.43;4.30;;;;;;;16.92;82.94;97934.72;5052426;28;20025;-78
2021/07/02 05:40:35;;;;;;;8.05;3.65;;;;;;;17.00;82.06;97948.50;5052459;28;20033;-78
2021/07/02 05:43:01;;;;;;;7.63;3.50;;;;;;;16.78;82.99;97937.75;5034261;28;20115;-78
2021/07/02 05:45:26;;;;;;;3.55;3.20;;;;;;;16.78;83.46;97950.75;5033853;28;20037;-79
2021/07/02 05:48:02;;;;;;;4.05;2.47;;;;;;;16.98;82.86;97939.69;5033974;28;20096;-77
2021/07/02 05:50:28;;;;;;;7.22;3.13;;;;;;;17.05;82.26;97941.94;5051275;28;20134;-78
2021/07/02 05:52:55;;;;;;;10.13;3.28;;;;;;;16.84;82.95;97941.94;5034155;28;20028;-81
2021/07/02 05:55:22;;;;;;;8.02;2.50;;;;;;;17.28;81.38;97931.34;5034175;28;20021;-79
2021/07/02 05:57:47;;;;;;;5.78;3.20;;;;;;;17.71;79.27;97917.91;5052073;28;20091;-79
2021/07/02 06:00:13;;;;;;;8.13;3.40;;;;;;;17.79;77.98;97918.97;5033641;28;20021;-80
2021/07/02 06:02:38;;;;;;;5.15;3.25;;;;;;;18.18;76.38;97921.06;5048698;28;20052;-77
2021/07/02 06:05:10;;;;;;;5.00;3.17;;;;;;;18.45;75.41;97925.13;5042317;28;20029;-76
2021/07/02 06:07:50;;;;;;;9.23;3.05;;;;;;;18.04;76.77;97920.63;5044681;28;20026;-86
2021/07/02 06:10:17;;;;;;;7.35;3.58;;;;;;;17.95;77.45;97917.94;5021283;28;20025;-87
2021/07/02 06:12:43;;;;;;;12.05;3.50;;;;;;;17.90;76.78;97909.88;5037250;28;20038;-80
2021/07/02 06:15:12;;;;;;;5.13;3.42;;;;;;;17.65;78.92;97919.28;5040437;28;20048;-85
2021/07/02 06:17:38;;;;;;;4.63;3.80;;;;;;;17.59;78.77;97912.34;5038860;28;20061;-86
2021/07/02 06:20:04;;;;;;;6.38;3.50;;;;;;;17.29;80.14;97911.63;5029599;28;20060;-87
2021/07/02 06:22:29;;;;;;;4.03;3.60;;;;;;;17.74;78.60;97921.94;5047509;28;20028;-86
2021/07/02 06:24:55;;;;;;;11.15;4.30;;;;;;;17.74;78.82;97919.97;5027944;28;20714;-85
2021/07/02 06:27:20;;;;;;;5.40;3.80;;;;;;;18.13;77.02;97913.81;5041234;28;20096;-87
2021/07/02 06:29:45;;;;;;;10.98;4.05;;;;;;;18.50;75.54;97919.38;5020320;28;20029;-84
2021/07/02 06:32:11;;;;;;;5.63;3.42;;;;;;;18.94;73.42;97920.31;5043667;28;20069;-85
2021/07/02 06:34:39;;;;;;;4.97;2.90;;;;;;;19.05;73.13;97913.94;5027209;28;20021;-85
2021/07/02 06:37:04;;;;;;;4.35;3.80;;;;;;;19.05;73.05;97922.25;5040692;28;20473;-81
2021/07/02 06:39:30;;;;;;;7.05;3.50;;;;;;;18.78;74.09;97923.03;5039878;28;20029;-82
2021/07/02 06:41:57;;;;;;;7.72;3.92;;;;;;;18.68;74.40;97912.41;5040584;28;20041;-83
2021/07/02 06:44:22;;;;;;;6.30;3.40;;;;;;;19.22;72.53;97921.97;5045130;28;20024;-85
2021/07/02 06:46:48;;;;;;;5.45;3.33;;;;;;;19.36;71.79;97915.22;5053604;28;20524;-86
2021/07/02 06:49:17;;;;;;;7.85;3.70;;;;;;;19.27;71.02;97901.47;5035756;28;20041;-84
2021/07/02 06:51:42;;;;;;;8.57;3.65;;;;;;;19.77;69.22;97900.91;5035469;28;20033;-84
2021/07/02 06:54:08;;;;;;;6.07;4.00;;;;;;;19.89;68.34;97906.38;5035886;28;20032;-85
2021/07/02 06:56:33;;;;;;;6.18;4.25;;;;;;;19.67;69.37;97915.31;5054642;28;20021;-86
2021/07/02 06:58:59;;;;;;;5.40;4.18;;;;;;;19.77;68.63;97914.78;5055978;28;20036;-85
2021/07/02 07:01:27;;;;;;;7.05;3.53;;;;;;;19.27;69.66;97907.84;5054882;28;20104;-88
2021/07/02 07:03:53;;;;;;;5.03;3.28;;;;;;;19.68;69.06;97914.16;5054908;28;20027;-88
2021/07/02 07:06:18;;;;;;;3.65;3.33;;;;;;;20.99;64.38;97920.94;5055346;28;20107;-85
2021/07/02 07:08:44;;;;;;;7.65;3.47;;;;;;;20.91;63.71;97916.41;5053714;28;20131;-84
2021/07/02 07:11:10;;;;;;;7.10;3.40;;;;;;;20.12;66.61;97909.34;5053295;28;20021;-85
2021/07/02 07:13:36;;;;;;;5.57;3.38;;;;;;;19.85;67.12;97911.03;5036134;28;20021;-84
2021/07/02 07:16:02;;;;;;;7.60;3.45;;;;;;;19.91;67.45;97904.06;5050622;28;20021;-78
2021/07/02 07:18:28;;;;;;;4.60;3.33;;;;;;;20.39;65.71;97916.00;5050999;28;20093;-80
2021/07/02 07:20:54;;;;;;;4.30;3.00;;;;;;;20.04;66.97;97908.38;5033475;28;20024;-78
2021/07/02 07:23:19;;;;;;;3.97;2.80;;;;;;;20.56;65.44;97912.81;5055567;28;20021;-78
2021/07/02 07:25:44;;;;;;;7.78;2.88;;;;;;;20.90;63.72;97912.00;5053712;28;20808;-78
2021/07/02 07:28:10;;;;;;;10.40;3.13;;;;;;;20.89;63.43;97904.06;5050653;28;20045;-77
2021/07/02 07:30:36;;;;;;;3.33;3.03;;;;;;;20.91;63.79;97901.69;5050312;28;20032;-79
2021/07/02 07:33:01;;;;;;;4.38;2.95;;;;;;;21.11;63.04;97911.72;5050585;28;20083;-77
2021/07/02 07:35:33;;;;;;;5.47;2.83;;;;;;;21.52;62.07;97915.75;5050193;28;20032;-79
2021/07/02 07:37:59;;;;;;;8.18;4.07;;;;;;;21.84;60.40;97919.91;5050478;28;20025;-79
2021/07/02 07:40:27;;;;;;;7.93;3.72;;;;;;;21.36;61.73;97919.38;5050736;28;20381;-78
2021/07/02 07:42:53;;;;;;;3.45;3.15;;;;;;;21.88;60.17;97912.44;5032770;28;20021;-79
2021/07/02 07:45:20;;;;;;;5.43;3.13;;;;;;;21.74;60.90;97909.41;5032701;28;20029;-79
2021/07/02 07:47:45;;;;;;;5.38;3.13;;;;;;;22.03;59.52;97907.94;5032630;28;20041;-78
2021/07/02 07:50:14;;;;;;;6.70;2.92;;;;;;;21.96;59.97;97908.63;5050515;28;20029;-79
2021/07/02 07:55:07;;;;;;;4.30;3.42;;;;;;;22.37;58.93;97902.16;5050575;28;20087;-80
2021/07/02 07:57:33;;;;;;;4.22;3.35;;;;;;;22.55;57.44;97907.22;5050587;28;20021;-78
2021/07/02 07:59:58;;;;;;;4.38;3.40;;;;;;;22.78;56.59;97889.28;5032322;28;20453;-79
2021/07/02 08:02:23;;;;;;;5.90;3.03;;;;;;;23.40;55.09;97910.06;5032613;28;20029;-78
2021/07/02 08:04:49;;;;;;;4.53;3.25;;;;;;;24.08;52.84;97906.00;5050749;28;20036;-78
2021/07/02 08:07:14;;;;;;;2.90;2.55;;;;;;;24.39;50.88;97896.31;5032479;28;20082;-77
2021/07/02 08:09:40;;;;;;;3.47;2.65;;;;;;;24.71;50.07;97905.75;5032499;28;20555;-77
2021/07/02 08:12:05;;;;;;;3.92;3.15;;;;;;;25.41;48.07;97910.13;5032498;28;20033;-77
2021/07/02 08:14:31;;;;;;;6.53;2.70;;;;;;;25.15;47.95;97902.03;5053852;28;20531;-77
2021/07/02 08:16:57;;;;;;;3.67;2.70;;;;;;;26.47;44.89;97894.38;5054773;28;20072;-77
2021/07/02 08:19:22;;;;;;;3.83;2.95;;;;;;;26.74;43.76;97903.19;5036535;28;20017;-77
2021/07/02 08:21:47;;;;;;;2.95;2.45;;;;;;;27.78;42.53;97898.88;5054476;28;20031;-77
2021/07/02 08:24:13;;;;;;;4.40;2.55;;;;;;;28.24;40.30;97902.19;5054493;28;20449;-77
2021/07/02 08:26:38;;;;;;;6.30;2.30;;;;;;;28.33;39.99;97896.09;5054224;28;20397;-78
2021/07/02 08:29:23;;;;;;;5.95;2.67;;;;;;;28.18;39.27;97901.03;5053928;28;20029;-76
2021/07/02 08:31:49;;;;;;;2.92;2.17;;;;;;;29.37;37.62;97903.16;5035680;28;20032;-77
2021/07/02 08:34:16;;;;;;;3.95;2.58;;;;;;;28.05;40.00;97891.47;5053320;28;20537;-76
2021/07/02 08:36:42;;;;;;;6.40;2.50;;;;;;;27.35;41.47;97898.22;5053533;28;20020;-77
2021/07/02 08:39:08;;;;;;;7.70;1.55;;;;;;;27.23;39.14;97893.03;5053780;28;20079;-78
2021/07/02 08:41:33;;;;;;;2.90;1.40;;;;;;;28.25;37.19;97883.31;5053828;28;20024;-77
2021/07/02 08:44:00;;;;;;;6.88;0.93;;;;;;;28.75;33.83;97894.97;5035773;28;20033;-76
2021/07/02 08:46:25;;;;;;;1.45;1.20;;;;;;;27.71;35.64;97898.91;5034856;28;20079;-78
2021/07/02 08:48:51;;;;;;;7.75;1.70;;;;;;;28.11;35.43;97901.06;5053417;28;20113;-78
2021/07/02 08:51:18;;;;;;;2.08;1.30;;;;;;;27.89;36.31;97903.19;5053636;28;20044;-76
2021/07/02 08:53:44;;;;;;;7.63;1.73;;;;;;;29.63;33.51;97908.06;5053979;28;20075;-78
2021/07/02 08:56:09;;;;;;;3.88;1.88;;;;;;;29.71;33.26;97904.72;5053381;28;20029;-75
2021/07/02 08:58:36;;;;;;;2.15;1.45;;;;;;;28.88;33.80;97904.50;5053237;28;20032;-75
2021/07/02 09:01:09;;;;;;;4.57;1.25;;;;;;;28.92;34.13;97889.13;5035666;28;20086;-76
2021/07/02 09:03:36;;;;;;;3.33;1.20;;;;;;;28.09;35.66;97898.69;5053571;28;20021;-75
2021/07/02 09:06:05;;;;;;;0.93;0.73;;;;;;;28.69;33.06;97891.78;5053284;28;20397;-76
2021/07/02 09:08:32;;;;;;;2.28;0.60;;;;;;;28.89;32.17;97889.16;5052980;28;20020;-76
2021/07/02 09:10:57;;;;;;;1.80;0.82;;;;;;;29.24;31.45;97900.09;5053365;28;20059;-76
2021/07/02 09:13:38;;;;;;;0.63;0.63;;;;;;;29.59;30.08;97885.56;5035055;28;20412;-76
2021/07/02 09:16:26;;;;;;;1.02;0.63;;;;;;;30.26;29.21;97897.94;5035172;28;20127;-77
2021/07/02 09:18:52;;;;;;;0.60;0.40;;;;;;;31.38;27.89;97888.69;5053470;28;20065;-76
2021/07/02 09:21:36;;;;;;;0.85;0.63;;;;;;;30.85;27.82;97886.84;5051956;28;20405;-77
2021/07/02 09:24:02;;;;;;;2.78;0.70;;;;;;;29.49;29.16;97886.50;5052630;28;20032;-78
2021/07/02 09:26:34;;;;;;;0.50;0.47;;;;;;;29.11;30.13;97879.28;5052634;28;20032;-76
2021/07/02 09:29:24;;;;;;;3.05;0.40;;;;;;;29.31;30.40;97883.09;5052518;28;20036;-76
2021/07/02 09:32:00;;;;;;;0.68;0.60;;;;;;;29.88;29.72;97890.84;5052952;28;20029;-78
2021/07/02 09:34:49;;;;;;;1.10;0.50;;;;;;;28.87;31.51;97874.72;5052899;28;20094;-76
2021/07/02 09:37:42;;;;;;;1.48;0.70;;;;;;;30.11;29.94;97885.22;5035055;28;20402;-78
2021/07/02 09:40:29;;;;;;;0.50;0.50;;;;;;;28.49;31.25;97871.81;5032793;28;20048;-77
2021/07/02 09:43:01;;;;;;;4.50;0.68;;;;;;;30.15;29.91;97874.69;5052814;28;20025;-77
2021/07/02 09:45:28;;;;;;;0.60;0.50;;;;;;;31.54;28.16;97873.84;5052666;28;20124;-77
2021/07/02 09:47:55;;;;;;;1.10;0.70;;;;;;;29.84;30.60;97879.59;5034929;28;20386;-77
2021/07/02 09:50:28;;;;;;;0.63;0.60;;;;;;;30.22;29.73;97874.59;5052199;28;20029;-77
2021/07/02 09:52:57;;;;;;;1.00;0.73;;;;;;;31.92;28.25;97882.69;5034322;28;20132;-76
2021/07/02 09:55:31;;;;;;;1.60;0.90;;;;;;;31.18;29.42;97882.19;5052577;28;20075;-77
2021/07/02 09:58:17;;;;;;;1.45;0.63;;;;;;;31.06;29.75;97874.38;5052144;28;20040;-77
2021/07/02 10:00:53;;;;;;;2.65;1.17;;;;;;;29.21;33.63;97869.91;5052328;28;20036;-76
2021/07/02 10:03:24;;;;;;;0.50;0.50;;;;;;;30.41;31.86;97865.44;5052583;28;20029;-76
2021/07/02 10:05:54;;;;;;;3.17;0.77;;;;;;;30.79;29.96;97866.75;5034319;28;20453;-76
2021/07/02 10:08:22;;;;;;;1.17;0.57;;;;;;;30.10;30.74;97876.00;5052286;28;20488;-76
2021/07/02 10:10:55;;;;;;;0.60;0.60;;;;;;;28.96;31.77;97860.94;5050842;28;20029;-78
2021/07/02 10:13:23;;;;;;;0.43;0.40;;;;;;;30.08;31.04;97867.13;5051913;28;20058;-77
2021/07/02 10:15:50;;;;;;;0.82;0.77;;;;;;;30.96;29.58;97866.88;5052202;28;20393;-75
2021/07/02 10:18:17;;;;;;;2.38;0.40;;;;;;;31.20;29.08;97866.41;5050666;28;20401;-78
2021/07/02 10:20:45;;;;;;;0.60;0.50;;;;;;;30.72;29.69;97852.78;5051993;28;20024;-76
2021/07/02 10:23:12;;;;;;;2.42;1.05;;;;;;;31.46;28.27;97859.00;5033613;28;20033;-77
2021/07/02 10:25:42;;;;;;;4.70;1.80;;;;;;;32.62;26.60;97863.22;5034073;28;20096;-76
2021/07/02 10:28:10;;;;;;;1.25;0.60;;;;;;;31.88;27.72;97857.31;5051851;28;20032;-76
2021/07/02 10:30:38;;;;;;;1.10;0.60;;;;;;;29.70;31.24;97849.53;5051459;28;20086;-77
2021/07/02 10:33:04;;;;;;;0.40;0.40;;;;;;;28.83;32.95;97852.22;5050226;28;20473;-77
2021/07/02 10:35:33;;;;;;;1.10;0.75;;;;;;;27.18;35.95;97843.72;5051038;28;20030;-78
2021/07/02 10:38:00;;;;;;;0.70;0.70;;;;;;;26.60;36.89;97841.44;5050733;28;20520;-78
2021/07/02 10:40:32;;;;;;;0.50;0.50;;;;;;;26.37;37.91;97815.84;5048299;28;23024;-77
2021/07/02 10:43:17;;;;;;;2.22;0.55;;;;;;;26.73;36.44;97839.00;5042496;28;20031;-78
2021/07/02 10:46:12;;;;;;;0.50;0.50;;;;;;;27.45;34.64;97836.38;5031505;28;20048;-78
2021/07/02 10:48:55;;;;;;;0.88;0.38;;;;;;;26.84;35.62;97828.59;5031137;28;20042;-77
2021/07/02 10:51:39;;;;;;;0.55;0.45;;;;;;;27.09;35.70;97824.50;5031256;28;20116;-79
2021/07/02 10:54:14;;;;;;;1.33;0.75;;;;;;;26.70;36.03;97818.16;5031061;28;20108;-77
2021/07/02 10:57:00;;;;;;;0.38;0.35;;;;;;;26.35;36.98;97812.59;5031107;28;20131;-75
2021/07/02 10:59:52;;;;;;;1.10;0.40;;;;;;;25.82;36.22;97816.19;5040435;28;20025;-77
2021/07/02 11:02:21;;;;;;;0.30;0.30;;;;;;;25.72;36.70;97796.59;5040888;28;20124;-79
2021/07/02 11:04:50;;;;;;;0.30;0.30;;;;;;;26.26;36.11;97806.59;5054534;28;20524;-78
2021/07/02 11:07:26;;;;;;;1.88;0.45;;;;;;;26.45;36.00;97807.00;5050171;28;20037;-78
2021/07/02 11:09:53;;;;;;;0.50;0.50;;;;;;;25.94;36.66;97806.59;5033388;28;20071;-76
2021/07/02 11:12:24;;;;;;;0.35;0.35;;;;;;;26.72;35.95;97809.34;5032888;28;20032;-78
2021/07/02 11:14:56;;;;;;;1.38;0.57;;;;;;;26.79;35.99;97814.91;5050825;28;20132;-78
2021/07/02 11:17:29;;;;;;;2.28;0.95;;;;;;;27.23;35.13;97801.13;5033105;28;20051;-78
2021/07/02 11:22:35;;;;;;;0.82;0.30;;;;;;;26.82;35.07;97805.72;5050781;28;20115;-77
2021/07/02 11:25:11;;;;;;;2.00;0.47;;;;;;;25.81;36.31;97788.59;5032000;28;20036;-80
2021/07/02 11:27:42;;;;;;;;;;;;;;;25.48;37.49;97798.91;5013529;28;20041;-76
2021/07/02 11:30:33;;;;;;;0.30;0.30;;;;;;;25.81;37.34;97791.38;5030932;28;19913;-78
2021/07/02 11:33:00;;;;;;;0.60;0.45;;;;;;;25.23;37.68;97786.84;5030931;28;20035;-74
2021/07/02 11:35:33;;;;;;;0.20;0.20;;;;;;;25.78;37.10;97773.34;5017918;28;20024;-76
2021/07/02 11:38:01;;;;;;;0.40;0.32;;;;;;;25.76;37.07;97786.16;5032710;28;20048;-78
2021/07/02 11:40:37;;;;;;;0.20;0.20;;;;;;;25.69;36.94;97777.75;5051291;28;20032;-76
2021/07/02 11:43:08;;;;;;;1.75;0.40;;;;;;;25.95;36.30;97768.94;5050373;28;20041;-76
2021/07/02 11:45:39;;;;;;;0.30;0.30;;;;;;;25.94;37.09;97775.75;5050304;28;20029;-76